createdAt,value
2023-03-21T00:03:05.345Z,6.60
2023-03-21T00:08:07.263Z,6.60
2023-03-21T00:13:09.101Z,6.60
2023-03-21T00:18:11.509Z,6.60
2023-03-21T00:23:13.450Z,6.50
2023-03-21T00:28:15.277Z,6.60
2023-03-21T00:33:22.828Z,6.50
2023-03-21T00:38:25.051Z,6.50
2023-03-21T00:43:30.127Z,6.50
2023-03-21T00:48:32.013Z,6.60
2023-03-21T00:53:33.765Z,6.60
2023-03-21T00:58:35.761Z,6.60
2023-03-21T01:03:42.761Z,6.50
2023-03-21T01:08:52.277Z,6.60
2023-03-21T01:14:04.144Z,6.50
2023-03-21T01:19:23.973Z,6.50
2023-03-21T01:24:26.754Z,6.40
2023-03-21T01:29:28.609Z,6.40
2023-03-21T01:34:30.406Z,6.40
2023-03-21T01:39:34.916Z,6.40
2023-03-21T01:44:55.481Z,6.40
2023-03-21T01:50:01.856Z,6.30
2023-03-21T01:55:07.658Z,6.40
2023-03-21T02:00:12.798Z,6.40
2023-03-21T02:05:14.697Z,6.40
2023-03-21T02:10:17.347Z,6.30
2023-03-21T02:15:19.319Z,6.30
2023-03-21T02:20:36.357Z,6.30
2023-03-21T02:25:38.232Z,6.30
2023-03-21T02:30:51.965Z,6.40
2023-03-21T02:36:16.441Z,6.40
2023-03-21T02:41:40.370Z,6.40
2023-03-21T02:47:05.946Z,6.40
2023-03-21T02:52:18.682Z,6.30
2023-03-21T02:57:25.351Z,6.40
2023-03-21T03:02:30.842Z,6.40
2023-03-21T03:07:41.468Z,6.40
2023-03-21T03:13:16.250Z,6.40
2023-03-21T03:18:33.601Z,6.40
2023-03-21T03:23:35.490Z,6.40
2023-03-21T03:28:41.572Z,6.50
2023-03-21T03:33:49.190Z,6.40
2023-03-21T03:38:52.305Z,6.40
2023-03-21T03:43:57.778Z,6.40
2023-03-21T03:49:12.052Z,6.40
2023-03-21T03:54:19.235Z,6.40
2023-03-21T03:59:25.197Z,6.40
2023-03-21T04:04:29.331Z,6.40
2023-03-21T04:09:43.252Z,6.40
2023-03-21T04:14:47.488Z,6.40
2023-03-21T04:19:55.556Z,6.30
2023-03-21T04:25:01.334Z,6.40
2023-03-21T04:30:05.310Z,6.40
2023-03-21T04:35:08.507Z,6.30
2023-03-21T04:40:11.194Z,6.50
2023-03-21T04:45:14.046Z,6.40
2023-03-21T04:50:16.840Z,6.40
2023-03-21T04:55:21.781Z,6.40
2023-03-21T05:00:23.853Z,6.40
2023-03-21T05:05:25.746Z,6.30
2023-03-21T05:10:27.666Z,6.40
2023-03-21T05:15:29.590Z,6.40
2023-03-21T05:20:31.529Z,6.40
2023-03-21T05:25:38.129Z,6.10
2023-03-21T05:30:40.213Z,5.90
2023-03-21T05:35:42.062Z,5.70
2023-03-21T05:40:48.354Z,5.60
2023-03-21T05:45:51.372Z,5.60
2023-03-21T05:50:54.241Z,5.40
2023-03-21T05:55:56.082Z,5.40
2023-03-21T06:00:57.963Z,5.30
2023-03-21T06:06:00.033Z,5.30
2023-03-21T06:11:01.989Z,5.20
2023-03-21T06:16:03.951Z,5.20
2023-03-21T06:21:06.252Z,5.30
2023-03-21T06:26:08.340Z,5.30
2023-03-21T06:31:10.307Z,5.10
2023-03-21T06:36:12.121Z,5.20
2023-03-21T06:41:14.060Z,5.20
2023-03-21T06:46:15.987Z,5.20
2023-03-21T06:51:18.065Z,5.30
2023-03-21T06:56:20.000Z,5.40
2023-03-21T07:01:22.187Z,5.60
2023-03-21T07:06:26.521Z,5.60
2023-03-21T07:11:28.428Z,5.70
2023-03-21T07:16:30.265Z,5.70
2023-03-21T07:21:32.554Z,5.80
2023-03-21T07:26:34.353Z,5.80
2023-03-21T07:31:36.734Z,5.70
2023-03-21T07:36:38.776Z,5.90
2023-03-21T07:41:40.892Z,5.80
2023-03-21T07:46:42.639Z,5.90
2023-03-21T07:51:44.396Z,6.00
2023-03-21T07:56:46.174Z,6.10
2023-03-21T08:01:48.109Z,6.10
2023-03-21T08:06:51.470Z,6.10
2023-03-21T08:11:53.293Z,6.00
2023-03-21T08:16:55.007Z,5.90
2023-03-21T08:22:00.237Z,5.80
2023-03-21T08:27:02.426Z,5.80
2023-03-21T08:32:04.311Z,5.90
2023-03-21T08:37:07.086Z,6.00
2023-03-21T08:42:08.842Z,5.80
2023-03-21T08:47:10.645Z,5.70
2023-03-21T08:52:12.620Z,5.50
2023-03-21T08:57:15.081Z,5.50
2023-03-21T09:02:17.702Z,5.30
2023-03-21T09:07:20.158Z,5.20
2023-03-21T09:12:22.090Z,5.30
2023-03-21T09:17:23.934Z,5.20
2023-03-21T09:22:26.167Z,5.20
2023-03-21T09:27:28.279Z,5.10
2023-03-21T09:32:30.569Z,5.20
2023-03-21T09:37:33.606Z,5.20
2023-03-21T09:42:43.437Z,5.10
2023-03-21T09:47:54.231Z,5.00
2023-03-21T09:53:21.254Z,5.20
2023-03-21T09:58:38.308Z,5.10
2023-03-21T10:03:41.792Z,5.10
2023-03-21T10:08:47.222Z,5.20
2023-03-21T10:13:54.676Z,5.20
2023-03-21T10:18:57.764Z,5.40
2023-03-21T10:24:00.785Z,5.20
2023-03-21T10:29:03.261Z,5.60
2023-03-21T10:34:32.843Z,5.70
2023-03-21T10:39:36.543Z,5.90
2023-03-21T10:44:38.689Z,6.00
2023-03-21T10:50:05.401Z,6.10
2023-03-21T10:55:17.810Z,6.10
2023-03-21T11:00:23.139Z,6.30
2023-03-21T11:05:33.397Z,6.80
2023-03-21T11:10:38.275Z,6.50
2023-03-21T11:16:05.351Z,6.70
2023-03-21T11:21:10.407Z,6.60
2023-03-21T11:26:24.460Z,6.60
2023-03-21T11:31:42.054Z,6.00
2023-03-21T11:36:43.938Z,6.00
2023-03-21T11:41:51.744Z,6.30
2023-03-21T11:46:54.395Z,6.30
2023-03-21T11:52:25.760Z,6.50
2023-03-21T11:57:39.789Z,6.50
2023-03-21T12:03:35.325Z,6.50
2023-03-21T12:08:53.681Z,6.60
2023-03-21T12:14:11.569Z,6.60
2023-03-21T12:19:21.239Z,6.40
2023-03-21T12:24:34.019Z,6.40
2023-03-21T12:29:59.470Z,6.50
2023-03-21T12:35:25.647Z,6.20
2023-03-21T12:40:52.196Z,5.80
2023-03-21T12:46:13.769Z,5.90
2023-03-21T12:51:19.876Z,6.10
2023-03-21T12:56:44.523Z,6.30
2023-03-21T13:01:50.518Z,6.50
2023-03-21T13:06:55.922Z,6.50
2023-03-21T13:12:06.406Z,6.70
2023-03-21T13:17:30.714Z,6.50
2023-03-21T13:22:33.277Z,6.70
2023-03-21T13:27:37.221Z,6.50
2023-03-21T13:32:44.340Z,6.30
2023-03-21T13:38:18.389Z,6.10
2023-03-21T13:43:54.098Z,5.90
2023-03-21T13:48:59.471Z,5.90
2023-03-21T13:54:04.497Z,5.60
2023-03-21T13:59:11.180Z,5.50
2023-03-21T14:04:17.044Z,5.80
2023-03-21T14:09:45.761Z,6.00
2023-03-21T14:14:50.741Z,5.90
2023-03-21T14:19:59.046Z,5.60
2023-03-21T14:25:02.604Z,5.40
2023-03-21T14:30:05.191Z,5.40
2023-03-21T14:35:12.504Z,5.10
2023-03-21T14:40:27.441Z,5.00
2023-03-21T14:45:30.809Z,5.20
2023-03-21T14:50:47.030Z,5.20
2023-03-21T14:55:56.838Z,5.40
2023-03-21T15:01:03.648Z,5.20
2023-03-21T15:06:05.669Z,5.10
2023-03-21T15:11:12.366Z,4.80
2023-03-21T15:16:16.957Z,5.00
2023-03-21T15:21:23.575Z,5.10
2023-03-21T15:26:26.669Z,5.20
2023-03-21T15:31:36.102Z,5.30
2023-03-21T15:36:45.474Z,5.20
2023-03-21T15:42:40.390Z,5.10
2023-03-21T15:47:54.809Z,4.90
2023-03-21T15:53:00.720Z,4.90
2023-03-21T15:58:09.814Z,4.70
2023-03-21T16:03:19.434Z,4.40
2023-03-21T16:08:27.289Z,4.40
2023-03-21T16:13:29.025Z,4.30
2023-03-21T16:18:32.158Z,4.20
2023-03-21T16:23:33.997Z,4.10
2023-03-21T16:28:36.099Z,4.00
2023-03-21T16:33:38.806Z,4.00
2023-03-21T16:44:26.263Z,3.90
2023-03-21T16:54:53.463Z,3.80
2023-03-21T17:00:01.649Z,3.70
2023-03-21T17:05:07.664Z,3.70
2023-03-21T17:10:21.120Z,3.60
2023-03-21T17:15:40.326Z,3.50
2023-03-21T17:22:05.173Z,3.40
2023-03-21T17:33:17.687Z,3.40
2023-03-21T17:38:20.899Z,3.30
2023-03-21T17:43:24.103Z,3.30
2023-03-21T17:48:26.772Z,3.20
2023-03-21T17:53:30.511Z,3.20
2023-03-21T17:58:35.184Z,3.30
2023-03-21T18:03:40.715Z,3.40
2023-03-21T18:09:18.479Z,3.40
2023-03-21T18:14:30.685Z,3.40
2023-03-21T18:19:35.932Z,3.30
2023-03-21T18:31:11.639Z,3.40
2023-03-21T18:43:45.596Z,3.30
2023-03-21T18:48:21.154Z,3.40
2023-03-21T18:53:23.740Z,3.40
2023-03-21T18:58:26.189Z,3.40
2023-03-21T19:03:36.785Z,3.30
2023-03-21T19:08:41.820Z,3.30
2023-03-21T19:13:43.646Z,3.40
2023-03-21T19:18:54.536Z,3.50
2023-03-21T19:24:25.136Z,3.50
2023-03-21T19:29:20.581Z,3.50
2023-03-21T19:34:22.437Z,3.50
2023-03-21T19:39:25.094Z,3.40
2023-03-21T19:44:26.878Z,3.20
2023-03-21T19:49:52.158Z,3.20
2023-03-21T19:54:50.817Z,3.20
2023-03-21T19:59:54.536Z,3.20
2023-03-21T20:04:56.286Z,3.10
2023-03-21T20:09:58.050Z,3.10
2023-03-21T20:15:12.192Z,3.10
2023-03-21T20:20:18.392Z,3.00
2023-03-21T20:25:23.042Z,3.00
2023-03-21T20:30:24.772Z,3.00
2023-03-21T20:36:05.397Z,2.90
2023-03-21T20:40:48.389Z,3.00
2023-03-21T20:45:50.692Z,2.90
2023-03-21T20:50:57.841Z,2.90
2023-03-21T20:56:03.775Z,2.90
2023-03-21T21:01:13.800Z,3.00
2023-03-21T21:06:21.527Z,3.00
2023-03-21T21:16:45.868Z,3.10
2023-03-21T21:21:47.718Z,3.10
2023-03-21T21:26:49.520Z,3.10
2023-03-21T21:31:51.390Z,3.10
2023-03-21T21:36:55.119Z,3.20
2023-03-21T21:41:56.943Z,3.10
2023-03-21T21:46:59.109Z,3.20
2023-03-21T21:52:04.405Z,3.30
2023-03-21T21:57:07.421Z,3.30
2023-03-21T22:02:11.740Z,3.30
2023-03-21T22:07:14.228Z,3.40
2023-03-21T22:12:15.989Z,3.30
2023-03-21T22:17:17.717Z,3.40
2023-03-21T22:22:19.574Z,3.40
2023-03-21T22:27:21.375Z,3.50
2023-03-21T22:32:23.580Z,3.40
2023-03-21T22:37:25.466Z,3.40
2023-03-21T22:42:27.266Z,3.50
2023-03-21T22:47:29.072Z,3.50
2023-03-21T22:52:31.161Z,3.50
2023-03-21T22:57:32.910Z,3.50
2023-03-21T23:02:34.614Z,3.50
2023-03-21T23:07:36.363Z,3.40
2023-03-21T23:12:40.114Z,3.50
2023-03-21T23:17:44.194Z,3.50
2023-03-21T23:22:46.073Z,3.50
2023-03-21T23:27:48.352Z,3.40
2023-03-21T23:32:50.240Z,3.50
2023-03-21T23:37:52.757Z,3.40
2023-03-21T23:42:54.746Z,3.40
2023-03-21T23:47:56.575Z,3.50
2023-03-21T23:52:58.383Z,3.50
2023-03-21T23:58:00.570Z,3.50
